sensor_id;sensor_type;location;lat;lon;timestamp;P1;durP1;ratioP1;P2;durP2;ratioP2
12591;SDS011;6361;52.120;5.108;2024-02-23T00:02:24;12.27;;;2.25;;
12591;SDS011;6361;52.120;5.108;2024-02-23T00:04:50;9.10;;;1.58;;
12591;SDS011;6361;52.120;5.108;2024-02-23T00:07:15;17.98;;;2.15;;
12591;SDS011;6361;52.120;5.108;2024-02-23T00:09:40;13.13;;;2.13;;
12591;SDS011;6361;52.120;5.108;2024-02-23T00:12:06;12.35;;;2.20;;
12591;SDS011;6361;52.120;5.108;2024-02-23T00:14:33;13.65;;;1.90;;
12591;SDS011;6361;52.120;5.108;2024-02-23T00:17:01;15.95;;;2.03;;
12591;SDS011;6361;52.120;5.108;2024-02-23T00:19:27;13.13;;;2.00;;
12591;SDS011;6361;52.120;5.108;2024-02-23T00:21:52;13.82;;;2.17;;
12591;SDS011;6361;52.120;5.108;2024-02-23T00:24:18;16.83;;;2.38;;
12591;SDS011;6361;52.120;5.108;2024-02-23T00:26:45;12.57;;;1.90;;
12591;SDS011;6361;52.120;5.108;2024-02-23T00:29:11;13.13;;;1.70;;
12591;SDS011;6361;52.120;5.108;2024-02-23T00:31:40;13.07;;;2.20;;
12591;SDS011;6361;52.120;5.108;2024-02-23T00:34:06;9.88;;;2.10;;
12591;SDS011;6361;52.120;5.108;2024-02-23T00:36:35;8.98;;;2.10;;
12591;SDS011;6361;52.120;5.108;2024-02-23T00:39:01;11.88;;;2.03;;
12591;SDS011;6361;52.120;5.108;2024-02-23T00:41:27;11.77;;;2.30;;
12591;SDS011;6361;52.120;5.108;2024-02-23T00:43:52;17.42;;;2.03;;
12591;SDS011;6361;52.120;5.108;2024-02-23T00:46:18;9.82;;;1.98;;
12591;SDS011;6361;52.120;5.108;2024-02-23T00:48:43;12.45;;;2.45;;
12591;SDS011;6361;52.120;5.108;2024-02-23T00:51:09;17.67;;;1.90;;
12591;SDS011;6361;52.120;5.108;2024-02-23T00:53:34;10.50;;;1.60;;
12591;SDS011;6361;52.120;5.108;2024-02-23T00:55:59;13.85;;;1.77;;
12591;SDS011;6361;52.120;5.108;2024-02-23T00:58:25;10.80;;;1.83;;
12591;SDS011;6361;52.120;5.108;2024-02-23T01:00:50;11.18;;;2.05;;
12591;SDS011;6361;52.120;5.108;2024-02-23T01:03:15;11.45;;;1.92;;
12591;SDS011;6361;52.120;5.108;2024-02-23T01:05:41;8.80;;;1.58;;
12591;SDS011;6361;52.120;5.108;2024-02-23T01:08:07;8.63;;;1.52;;
12591;SDS011;6361;52.120;5.108;2024-02-23T01:10:33;7.68;;;1.58;;
12591;SDS011;6361;52.120;5.108;2024-02-23T01:12:58;7.63;;;1.20;;
12591;SDS011;6361;52.120;5.108;2024-02-23T01:15:23;10.15;;;1.60;;
12591;SDS011;6361;52.120;5.108;2024-02-23T01:17:49;6.72;;;1.42;;
12591;SDS011;6361;52.120;5.108;2024-02-23T01:20:14;6.03;;;1.45;;
12591;SDS011;6361;52.120;5.108;2024-02-23T01:22:39;7.30;;;1.50;;
12591;SDS011;6361;52.120;5.108;2024-02-23T01:25:05;8.85;;;1.63;;
12591;SDS011;6361;52.120;5.108;2024-02-23T01:27:30;9.18;;;1.58;;
12591;SDS011;6361;52.120;5.108;2024-02-23T01:29:56;5.90;;;1.50;;
12591;SDS011;6361;52.120;5.108;2024-02-23T01:32:21;8.82;;;1.25;;
12591;SDS011;6361;52.120;5.108;2024-02-23T01:34:47;10.20;;;2.10;;
12591;SDS011;6361;52.120;5.108;2024-02-23T01:37:12;7.72;;;1.50;;
12591;SDS011;6361;52.120;5.108;2024-02-23T01:39:37;9.38;;;1.73;;
12591;SDS011;6361;52.120;5.108;2024-02-23T01:42:03;10.02;;;1.90;;
12591;SDS011;6361;52.120;5.108;2024-02-23T01:44:29;9.05;;;1.55;;
12591;SDS011;6361;52.120;5.108;2024-02-23T01:46:54;9.45;;;1.63;;
12591;SDS011;6361;52.120;5.108;2024-02-23T01:49:20;11.15;;;1.85;;
12591;SDS011;6361;52.120;5.108;2024-02-23T01:51:46;10.05;;;1.60;;
12591;SDS011;6361;52.120;5.108;2024-02-23T01:54:11;9.38;;;1.90;;
12591;SDS011;6361;52.120;5.108;2024-02-23T01:56:37;15.00;;;1.42;;
12591;SDS011;6361;52.120;5.108;2024-02-23T01:59:04;13.00;;;1.90;;
12591;SDS011;6361;52.120;5.108;2024-02-23T02:01:31;15.73;;;2.00;;
12591;SDS011;6361;52.120;5.108;2024-02-23T02:03:56;12.77;;;1.83;;
12591;SDS011;6361;52.120;5.108;2024-02-23T02:06:23;10.20;;;1.48;;
12591;SDS011;6361;52.120;5.108;2024-02-23T02:08:48;12.13;;;1.42;;
12591;SDS011;6361;52.120;5.108;2024-02-23T02:11:14;8.52;;;1.52;;
12591;SDS011;6361;52.120;5.108;2024-02-23T02:13:40;11.65;;;1.50;;
12591;SDS011;6361;52.120;5.108;2024-02-23T02:16:05;14.75;;;1.77;;
12591;SDS011;6361;52.120;5.108;2024-02-23T02:18:31;9.38;;;2.00;;
12591;SDS011;6361;52.120;5.108;2024-02-23T02:20:57;8.35;;;1.65;;
12591;SDS011;6361;52.120;5.108;2024-02-23T02:23:23;12.27;;;2.00;;
12591;SDS011;6361;52.120;5.108;2024-02-23T02:25:55;8.48;;;1.90;;
12591;SDS011;6361;52.120;5.108;2024-02-23T02:28:21;11.10;;;2.00;;
12591;SDS011;6361;52.120;5.108;2024-02-23T02:30:48;15.43;;;2.30;;
12591;SDS011;6361;52.120;5.108;2024-02-23T02:33:14;14.32;;;2.28;;
12591;SDS011;6361;52.120;5.108;2024-02-23T02:35:39;8.55;;;1.77;;
12591;SDS011;6361;52.120;5.108;2024-02-23T02:38:04;7.95;;;1.77;;
12591;SDS011;6361;52.120;5.108;2024-02-23T02:40:30;11.25;;;1.95;;
12591;SDS011;6361;52.120;5.108;2024-02-23T02:42:58;11.55;;;2.10;;
12591;SDS011;6361;52.120;5.108;2024-02-23T02:45:23;7.57;;;2.05;;
12591;SDS011;6361;52.120;5.108;2024-02-23T02:47:49;6.60;;;1.60;;
12591;SDS011;6361;52.120;5.108;2024-02-23T02:50:14;11.45;;;2.38;;
12591;SDS011;6361;52.120;5.108;2024-02-23T02:52:39;9.75;;;2.10;;
12591;SDS011;6361;52.120;5.108;2024-02-23T02:55:05;9.43;;;1.60;;
12591;SDS011;6361;52.120;5.108;2024-02-23T02:57:30;7.35;;;1.60;;
12591;SDS011;6361;52.120;5.108;2024-02-23T02:59:56;10.48;;;1.88;;
12591;SDS011;6361;52.120;5.108;2024-02-23T03:02:21;11.65;;;2.20;;
12591;SDS011;6361;52.120;5.108;2024-02-23T03:04:50;13.38;;;2.05;;
12591;SDS011;6361;52.120;5.108;2024-02-23T03:07:18;10.40;;;2.00;;
12591;SDS011;6361;52.120;5.108;2024-02-23T03:09:44;9.05;;;1.92;;
12591;SDS011;6361;52.120;5.108;2024-02-23T03:12:10;10.23;;;1.95;;
12591;SDS011;6361;52.120;5.108;2024-02-23T03:14:35;13.30;;;2.20;;
12591;SDS011;6361;52.120;5.108;2024-02-23T03:17:04;12.27;;;2.35;;
12591;SDS011;6361;52.120;5.108;2024-02-23T03:19:30;11.88;;;1.92;;
12591;SDS011;6361;52.120;5.108;2024-02-23T03:21:55;13.50;;;2.10;;
12591;SDS011;6361;52.120;5.108;2024-02-23T03:24:20;7.85;;;1.80;;
12591;SDS011;6361;52.120;5.108;2024-02-23T03:26:46;10.70;;;1.85;;
12591;SDS011;6361;52.120;5.108;2024-02-23T03:29:11;7.97;;;1.77;;
12591;SDS011;6361;52.120;5.108;2024-02-23T03:31:37;9.02;;;1.80;;
12591;SDS011;6361;52.120;5.108;2024-02-23T03:34:02;10.40;;;2.15;;
12591;SDS011;6361;52.120;5.108;2024-02-23T03:36:28;8.50;;;1.88;;
12591;SDS011;6361;52.120;5.108;2024-02-23T03:38:53;7.47;;;2.25;;
12591;SDS011;6361;52.120;5.108;2024-02-23T03:41:18;8.75;;;2.20;;
12591;SDS011;6361;52.120;5.108;2024-02-23T03:43:44;13.00;;;2.40;;
12591;SDS011;6361;52.120;5.108;2024-02-23T03:46:09;7.82;;;1.98;;
12591;SDS011;6361;52.120;5.108;2024-02-23T03:48:36;7.28;;;1.98;;
12591;SDS011;6361;52.120;5.108;2024-02-23T03:51:02;9.75;;;2.78;;
12591;SDS011;6361;52.120;5.108;2024-02-23T03:53:30;8.38;;;2.30;;
12591;SDS011;6361;52.120;5.108;2024-02-23T03:55:59;10.75;;;2.00;;
12591;SDS011;6361;52.120;5.108;2024-02-23T03:58:24;11.95;;;1.70;;
12591;SDS011;6361;52.120;5.108;2024-02-23T04:00:50;10.95;;;2.03;;
12591;SDS011;6361;52.120;5.108;2024-02-23T04:03:16;8.43;;;1.90;;
12591;SDS011;6361;52.120;5.108;2024-02-23T04:05:41;12.50;;;1.85;;
12591;SDS011;6361;52.120;5.108;2024-02-23T04:08:07;9.43;;;2.38;;
12591;SDS011;6361;52.120;5.108;2024-02-23T04:10:32;9.98;;;1.80;;
12591;SDS011;6361;52.120;5.108;2024-02-23T04:12:57;7.75;;;1.73;;
12591;SDS011;6361;52.120;5.108;2024-02-23T04:15:23;10.95;;;1.90;;
12591;SDS011;6361;52.120;5.108;2024-02-23T04:17:48;9.10;;;1.70;;
12591;SDS011;6361;52.120;5.108;2024-02-23T04:20:14;11.43;;;1.67;;
12591;SDS011;6361;52.120;5.108;2024-02-23T04:22:39;9.80;;;2.13;;
12591;SDS011;6361;52.120;5.108;2024-02-23T04:25:04;9.05;;;1.90;;
12591;SDS011;6361;52.120;5.108;2024-02-23T04:27:30;15.48;;;2.35;;
12591;SDS011;6361;52.120;5.108;2024-02-23T04:29:55;11.18;;;2.10;;
12591;SDS011;6361;52.120;5.108;2024-02-23T04:32:21;10.20;;;2.50;;
12591;SDS011;6361;52.120;5.108;2024-02-23T04:34:46;9.75;;;2.20;;
12591;SDS011;6361;52.120;5.108;2024-02-23T04:37:12;13.02;;;2.75;;
12591;SDS011;6361;52.120;5.108;2024-02-23T04:39:37;7.97;;;2.58;;
12591;SDS011;6361;52.120;5.108;2024-02-23T04:42:03;8.63;;;2.10;;
12591;SDS011;6361;52.120;5.108;2024-02-23T04:44:29;8.40;;;2.22;;
12591;SDS011;6361;52.120;5.108;2024-02-23T04:46:54;10.57;;;1.70;;
12591;SDS011;6361;52.120;5.108;2024-02-23T04:49:20;7.20;;;1.60;;
12591;SDS011;6361;52.120;5.108;2024-02-23T04:51:45;8.25;;;2.17;;
12591;SDS011;6361;52.120;5.108;2024-02-23T04:54:10;9.13;;;2.35;;
12591;SDS011;6361;52.120;5.108;2024-02-23T04:56:36;9.90;;;2.10;;
12591;SDS011;6361;52.120;5.108;2024-02-23T04:59:01;10.23;;;2.17;;
12591;SDS011;6361;52.120;5.108;2024-02-23T05:01:27;11.07;;;2.38;;
12591;SDS011;6361;52.120;5.108;2024-02-23T05:03:52;16.52;;;3.25;;
12591;SDS011;6361;52.120;5.108;2024-02-23T05:06:18;11.18;;;2.80;;
12591;SDS011;6361;52.120;5.108;2024-02-23T05:08:43;11.45;;;3.13;;
12591;SDS011;6361;52.120;5.108;2024-02-23T05:11:08;7.88;;;2.90;;
12591;SDS011;6361;52.120;5.108;2024-02-23T05:13:34;10.30;;;2.90;;
12591;SDS011;6361;52.120;5.108;2024-02-23T05:15:59;9.00;;;2.53;;
12591;SDS011;6361;52.120;5.108;2024-02-23T05:18:25;8.93;;;2.90;;
12591;SDS011;6361;52.120;5.108;2024-02-23T05:20:52;10.40;;;3.00;;
12591;SDS011;6361;52.120;5.108;2024-02-23T05:23:18;11.07;;;2.83;;
12591;SDS011;6361;52.120;5.108;2024-02-23T05:25:43;9.88;;;2.65;;
12591;SDS011;6361;52.120;5.108;2024-02-23T05:28:08;11.43;;;3.35;;
12591;SDS011;6361;52.120;5.108;2024-02-23T05:30:34;11.32;;;3.38;;
12591;SDS011;6361;52.120;5.108;2024-02-23T05:32:59;8.90;;;3.25;;
12591;SDS011;6361;52.120;5.108;2024-02-23T05:35:28;9.82;;;3.50;;
12591;SDS011;6361;52.120;5.108;2024-02-23T05:37:53;8.18;;;3.13;;
12591;SDS011;6361;52.120;5.108;2024-02-23T05:40:18;9.75;;;3.40;;
12591;SDS011;6361;52.120;5.108;2024-02-23T05:42:44;12.07;;;3.25;;
12591;SDS011;6361;52.120;5.108;2024-02-23T05:45:09;7.07;;;3.40;;
12591;SDS011;6361;52.120;5.108;2024-02-23T05:47:36;10.93;;;4.03;;
12591;SDS011;6361;52.120;5.108;2024-02-23T05:50:02;10.25;;;3.65;;
12591;SDS011;6361;52.120;5.108;2024-02-23T05:52:29;9.23;;;4.07;;
12591;SDS011;6361;52.120;5.108;2024-02-23T05:54:56;8.40;;;3.80;;
12591;SDS011;6361;52.120;5.108;2024-02-23T05:57:21;10.00;;;3.78;;
12591;SDS011;6361;52.120;5.108;2024-02-23T05:59:46;9.73;;;3.78;;
12591;SDS011;6361;52.120;5.108;2024-02-23T06:02:12;10.23;;;3.85;;
12591;SDS011;6361;52.120;5.108;2024-02-23T06:04:38;7.07;;;3.83;;
12591;SDS011;6361;52.120;5.108;2024-02-23T06:07:05;9.05;;;3.58;;
12591;SDS011;6361;52.120;5.108;2024-02-23T06:09:30;10.75;;;3.97;;
12591;SDS011;6361;52.120;5.108;2024-02-23T06:11:56;10.45;;;3.90;;
12591;SDS011;6361;52.120;5.108;2024-02-23T06:14:22;9.88;;;3.67;;
12591;SDS011;6361;52.120;5.108;2024-02-23T06:16:50;7.15;;;3.58;;
12591;SDS011;6361;52.120;5.108;2024-02-23T06:19:15;6.60;;;3.13;;
12591;SDS011;6361;52.120;5.108;2024-02-23T06:21:41;9.70;;;3.20;;
12591;SDS011;6361;52.120;5.108;2024-02-23T06:24:06;10.10;;;3.20;;
12591;SDS011;6361;52.120;5.108;2024-02-23T06:26:33;7.35;;;2.80;;
12591;SDS011;6361;52.120;5.108;2024-02-23T06:28:59;9.95;;;3.22;;
12591;SDS011;6361;52.120;5.108;2024-02-23T06:31:24;8.82;;;3.15;;
12591;SDS011;6361;52.120;5.108;2024-02-23T06:33:50;6.15;;;2.60;;
12591;SDS011;6361;52.120;5.108;2024-02-23T06:36:16;9.75;;;2.97;;
12591;SDS011;6361;52.120;5.108;2024-02-23T06:38:43;7.70;;;2.90;;
12591;SDS011;6361;52.120;5.108;2024-02-23T06:41:08;6.50;;;2.90;;
12591;SDS011;6361;52.120;5.108;2024-02-23T06:43:36;4.72;;;2.80;;
12591;SDS011;6361;52.120;5.108;2024-02-23T06:46:07;8.80;;;3.05;;
12591;SDS011;6361;52.120;5.108;2024-02-23T06:48:34;7.25;;;2.83;;
12591;SDS011;6361;52.120;5.108;2024-02-23T06:51:00;11.43;;;2.70;;
12591;SDS011;6361;52.120;5.108;2024-02-23T06:53:25;9.60;;;3.05;;
12591;SDS011;6361;52.120;5.108;2024-02-23T06:55:50;6.80;;;2.60;;
12591;SDS011;6361;52.120;5.108;2024-02-23T06:58:16;7.10;;;2.70;;
12591;SDS011;6361;52.120;5.108;2024-02-23T07:00:41;6.40;;;2.47;;
12591;SDS011;6361;52.120;5.108;2024-02-23T07:03:07;8.35;;;2.72;;
12591;SDS011;6361;52.120;5.108;2024-02-23T07:05:32;8.57;;;2.33;;
12591;SDS011;6361;52.120;5.108;2024-02-23T07:08:00;6.97;;;2.17;;
12591;SDS011;6361;52.120;5.108;2024-02-23T07:10:25;7.25;;;2.75;;
12591;SDS011;6361;52.120;5.108;2024-02-23T07:12:51;8.43;;;2.20;;
12591;SDS011;6361;52.120;5.108;2024-02-23T07:15:18;7.45;;;2.63;;
12591;SDS011;6361;52.120;5.108;2024-02-23T07:17:44;10.93;;;2.50;;
12591;SDS011;6361;52.120;5.108;2024-02-23T07:20:10;6.28;;;2.05;;
12591;SDS011;6361;52.120;5.108;2024-02-23T07:22:36;9.82;;;2.35;;
12591;SDS011;6361;52.120;5.108;2024-02-23T07:25:01;7.78;;;2.10;;
12591;SDS011;6361;52.120;5.108;2024-02-23T07:27:29;9.18;;;2.13;;
12591;SDS011;6361;52.120;5.108;2024-02-23T07:29:55;5.15;;;1.80;;
12591;SDS011;6361;52.120;5.108;2024-02-23T07:32:20;7.38;;;1.95;;
12591;SDS011;6361;52.120;5.108;2024-02-23T07:34:45;6.35;;;1.90;;
12591;SDS011;6361;52.120;5.108;2024-02-23T07:37:11;9.88;;;2.25;;
12591;SDS011;6361;52.120;5.108;2024-02-23T07:39:36;5.65;;;1.80;;
12591;SDS011;6361;52.120;5.108;2024-02-23T07:42:03;9.77;;;1.77;;
12591;SDS011;6361;52.120;5.108;2024-02-23T07:44:28;5.07;;;1.70;;
12591;SDS011;6361;52.120;5.108;2024-02-23T07:46:53;9.13;;;1.90;;
12591;SDS011;6361;52.120;5.108;2024-02-23T07:49:20;11.48;;;1.65;;
12591;SDS011;6361;52.120;5.108;2024-02-23T07:51:47;7.82;;;1.75;;
12591;SDS011;6361;52.120;5.108;2024-02-23T07:54:12;7.78;;;1.83;;
12591;SDS011;6361;52.120;5.108;2024-02-23T07:56:38;5.88;;;1.35;;
12591;SDS011;6361;52.120;5.108;2024-02-23T07:59:03;8.23;;;1.52;;
12591;SDS011;6361;52.120;5.108;2024-02-23T08:01:28;5.20;;;1.50;;
12591;SDS011;6361;52.120;5.108;2024-02-23T08:03:54;5.93;;;1.52;;
12591;SDS011;6361;52.120;5.108;2024-02-23T08:06:19;6.30;;;2.08;;
12591;SDS011;6361;52.120;5.108;2024-02-23T08:08:45;6.97;;;1.60;;
12591;SDS011;6361;52.120;5.108;2024-02-23T08:11:13;6.70;;;1.70;;
12591;SDS011;6361;52.120;5.108;2024-02-23T08:13:38;9.82;;;2.00;;
12591;SDS011;6361;52.120;5.108;2024-02-23T08:16:04;11.60;;;1.98;;
12591;SDS011;6361;52.120;5.108;2024-02-23T08:18:31;8.85;;;1.83;;
12591;SDS011;6361;52.120;5.108;2024-02-23T08:20:56;7.03;;;1.83;;
12591;SDS011;6361;52.120;5.108;2024-02-23T08:23:22;7.47;;;1.83;;
12591;SDS011;6361;52.120;5.108;2024-02-23T08:25:48;11.32;;;1.75;;
12591;SDS011;6361;52.120;5.108;2024-02-23T08:28:13;10.60;;;2.10;;
12591;SDS011;6361;52.120;5.108;2024-02-23T08:30:39;9.43;;;1.92;;
12591;SDS011;6361;52.120;5.108;2024-02-23T08:33:04;7.75;;;1.92;;
12591;SDS011;6361;52.120;5.108;2024-02-23T08:35:30;10.25;;;2.10;;
12591;SDS011;6361;52.120;5.108;2024-02-23T08:37:56;10.75;;;1.75;;
12591;SDS011;6361;52.120;5.108;2024-02-23T08:40:21;11.25;;;2.50;;
12591;SDS011;6361;52.120;5.108;2024-02-23T08:42:47;7.82;;;2.35;;
12591;SDS011;6361;52.120;5.108;2024-02-23T08:45:12;9.75;;;1.90;;
12591;SDS011;6361;52.120;5.108;2024-02-23T08:47:38;7.15;;;1.95;;
12591;SDS011;6361;52.120;5.108;2024-02-23T08:50:04;7.00;;;1.90;;
12591;SDS011;6361;52.120;5.108;2024-02-23T08:52:30;8.68;;;2.00;;
12591;SDS011;6361;52.120;5.108;2024-02-23T08:54:56;8.60;;;2.42;;
12591;SDS011;6361;52.120;5.108;2024-02-23T08:57:21;8.02;;;2.38;;
12591;SDS011;6361;52.120;5.108;2024-02-23T08:59:48;7.93;;;2.20;;
12591;SDS011;6361;52.120;5.108;2024-02-23T09:02:19;11.02;;;2.47;;
12591;SDS011;6361;52.120;5.108;2024-02-23T09:04:48;14.90;;;2.45;;
12591;SDS011;6361;52.120;5.108;2024-02-23T09:07:13;6.63;;;2.10;;
12591;SDS011;6361;52.120;5.108;2024-02-23T09:09:39;9.48;;;2.28;;
12591;SDS011;6361;52.120;5.108;2024-02-23T09:12:04;8.23;;;2.03;;
12591;SDS011;6361;52.120;5.108;2024-02-23T09:14:31;9.10;;;2.35;;
12591;SDS011;6361;52.120;5.108;2024-02-23T09:16:58;8.10;;;2.00;;
12591;SDS011;6361;52.120;5.108;2024-02-23T09:19:23;8.10;;;2.03;;
12591;SDS011;6361;52.120;5.108;2024-02-23T09:21:48;11.13;;;2.85;;
12591;SDS011;6361;52.120;5.108;2024-02-23T09:24:16;7.28;;;2.10;;
12591;SDS011;6361;52.120;5.108;2024-02-23T09:26:42;8.82;;;2.30;;
12591;SDS011;6361;52.120;5.108;2024-02-23T09:29:07;8.20;;;2.17;;
12591;SDS011;6361;52.120;5.108;2024-02-23T09:31:32;10.05;;;2.30;;
12591;SDS011;6361;52.120;5.108;2024-02-23T09:33:58;8.45;;;2.10;;
12591;SDS011;6361;52.120;5.108;2024-02-23T09:36:24;10.88;;;2.45;;
12591;SDS011;6361;52.120;5.108;2024-02-23T09:38:49;11.82;;;2.63;;
12591;SDS011;6361;52.120;5.108;2024-02-23T09:41:22;7.57;;;2.00;;
12591;SDS011;6361;52.120;5.108;2024-02-23T09:43:48;6.35;;;2.10;;
12591;SDS011;6361;52.120;5.108;2024-02-23T09:46:15;5.45;;;1.88;;
12591;SDS011;6361;52.120;5.108;2024-02-23T09:48:41;7.85;;;2.10;;
12591;SDS011;6361;52.120;5.108;2024-02-23T09:51:07;8.90;;;2.03;;
12591;SDS011;6361;52.120;5.108;2024-02-23T09:53:38;6.55;;;2.70;;
12591;SDS011;6361;52.120;5.108;2024-02-23T09:56:04;7.70;;;2.35;;
12591;SDS011;6361;52.120;5.108;2024-02-23T09:58:33;8.48;;;2.08;;
12591;SDS011;6361;52.120;5.108;2024-02-23T10:00:59;7.00;;;2.38;;
12591;SDS011;6361;52.120;5.108;2024-02-23T10:03:27;6.70;;;1.90;;
12591;SDS011;6361;52.120;5.108;2024-02-23T10:05:56;7.38;;;2.55;;
12591;SDS011;6361;52.120;5.108;2024-02-23T10:08:22;7.72;;;2.15;;
12591;SDS011;6361;52.120;5.108;2024-02-23T10:10:47;5.68;;;1.92;;
12591;SDS011;6361;52.120;5.108;2024-02-23T10:13:19;6.72;;;2.63;;
12591;SDS011;6361;52.120;5.108;2024-02-23T10:15:49;4.97;;;2.00;;
12591;SDS011;6361;52.120;5.108;2024-02-23T10:18:15;9.00;;;2.22;;
12591;SDS011;6361;52.120;5.108;2024-02-23T10:20:41;7.70;;;2.72;;
12591;SDS011;6361;52.120;5.108;2024-02-23T10:23:07;7.43;;;2.45;;
12591;SDS011;6361;52.120;5.108;2024-02-23T10:25:33;6.78;;;2.30;;
12591;SDS011;6361;52.120;5.108;2024-02-23T10:28:00;6.45;;;2.50;;
12591;SDS011;6361;52.120;5.108;2024-02-23T10:30:26;7.90;;;2.40;;
12591;SDS011;6361;52.120;5.108;2024-02-23T10:32:52;9.18;;;2.83;;
12591;SDS011;6361;52.120;5.108;2024-02-23T10:35:20;6.57;;;2.30;;
12591;SDS011;6361;52.120;5.108;2024-02-23T10:37:47;8.73;;;2.50;;
12591;SDS011;6361;52.120;5.108;2024-02-23T10:40:15;9.82;;;2.30;;
12591;SDS011;6361;52.120;5.108;2024-02-23T10:42:43;6.32;;;2.72;;
12591;SDS011;6361;52.120;5.108;2024-02-23T10:45:12;6.40;;;2.33;;
12591;SDS011;6361;52.120;5.108;2024-02-23T10:47:38;8.85;;;2.95;;
12591;SDS011;6361;52.120;5.108;2024-02-23T10:50:04;7.63;;;2.58;;
12591;SDS011;6361;52.120;5.108;2024-02-23T10:52:31;7.78;;;2.30;;
12591;SDS011;6361;52.120;5.108;2024-02-23T10:54:57;5.57;;;2.30;;
12591;SDS011;6361;52.120;5.108;2024-02-23T10:57:22;8.75;;;2.50;;
12591;SDS011;6361;52.120;5.108;2024-02-23T10:59:48;8.10;;;2.60;;
12591;SDS011;6361;52.120;5.108;2024-02-23T11:02:14;6.68;;;2.38;;
12591;SDS011;6361;52.120;5.108;2024-02-23T11:04:43;7.88;;;2.70;;
12591;SDS011;6361;52.120;5.108;2024-02-23T11:07:15;7.70;;;2.78;;
12591;SDS011;6361;52.120;5.108;2024-02-23T11:09:42;5.60;;;2.25;;
12591;SDS011;6361;52.120;5.108;2024-02-23T11:12:07;6.38;;;2.40;;
12591;SDS011;6361;52.120;5.108;2024-02-23T11:14:35;7.32;;;2.25;;
12591;SDS011;6361;52.120;5.108;2024-02-23T11:17:01;6.80;;;2.50;;
12591;SDS011;6361;52.120;5.108;2024-02-23T11:19:37;9.40;;;2.25;;
12591;SDS011;6361;52.120;5.108;2024-02-23T11:22:04;4.00;;;2.25;;
12591;SDS011;6361;52.120;5.108;2024-02-23T11:24:30;7.90;;;2.50;;
12591;SDS011;6361;52.120;5.108;2024-02-23T11:26:56;7.07;;;2.53;;
12591;SDS011;6361;52.120;5.108;2024-02-23T11:29:27;7.30;;;2.30;;
12591;SDS011;6361;52.120;5.108;2024-02-23T11:31:53;7.07;;;2.28;;
12591;SDS011;6361;52.120;5.108;2024-02-23T11:34:26;6.35;;;2.50;;
12591;SDS011;6361;52.120;5.108;2024-02-23T11:36:51;6.53;;;2.40;;
12591;SDS011;6361;52.120;5.108;2024-02-23T11:39:18;7.18;;;2.60;;
12591;SDS011;6361;52.120;5.108;2024-02-23T11:41:44;5.88;;;2.47;;
12591;SDS011;6361;52.120;5.108;2024-02-23T11:44:10;5.28;;;2.30;;
12591;SDS011;6361;52.120;5.108;2024-02-23T11:46:35;7.50;;;2.47;;
12591;SDS011;6361;52.120;5.108;2024-02-23T11:49:01;5.60;;;2.67;;
12591;SDS011;6361;52.120;5.108;2024-02-23T11:51:27;7.80;;;2.53;;
12591;SDS011;6361;52.120;5.108;2024-02-23T11:53:55;5.45;;;2.03;;
12591;SDS011;6361;52.120;5.108;2024-02-23T11:56:23;8.63;;;2.70;;
12591;SDS011;6361;52.120;5.108;2024-02-23T11:58:48;8.75;;;2.38;;
12591;SDS011;6361;52.120;5.108;2024-02-23T12:01:14;6.00;;;2.50;;
12591;SDS011;6361;52.120;5.108;2024-02-23T12:03:39;7.25;;;2.30;;
12591;SDS011;6361;52.120;5.108;2024-02-23T12:06:06;5.75;;;2.30;;
12591;SDS011;6361;52.120;5.108;2024-02-23T12:08:32;5.80;;;2.22;;
12591;SDS011;6361;52.120;5.108;2024-02-23T12:11:04;6.72;;;2.42;;
12591;SDS011;6361;52.120;5.108;2024-02-23T12:13:30;9.13;;;2.38;;
12591;SDS011;6361;52.120;5.108;2024-02-23T12:15:56;7.43;;;2.58;;
12591;SDS011;6361;52.120;5.108;2024-02-23T12:18:22;10.48;;;2.50;;
12591;SDS011;6361;52.120;5.108;2024-02-23T12:21:00;6.35;;;2.30;;
12591;SDS011;6361;52.120;5.108;2024-02-23T12:23:42;3.92;;;2.30;;
12591;SDS011;6361;52.120;5.108;2024-02-23T12:26:08;5.68;;;1.80;;
12591;SDS011;6361;52.120;5.108;2024-02-23T12:28:34;9.02;;;2.80;;
12591;SDS011;6361;52.120;5.108;2024-02-23T12:31:00;5.10;;;2.05;;
12591;SDS011;6361;52.120;5.108;2024-02-23T12:33:31;4.95;;;1.80;;
12591;SDS011;6361;52.120;5.108;2024-02-23T12:35:57;7.53;;;1.88;;
12591;SDS011;6361;52.120;5.108;2024-02-23T12:38:24;8.48;;;2.17;;
12591;SDS011;6361;52.120;5.108;2024-02-23T12:40:50;4.85;;;1.88;;
12591;SDS011;6361;52.120;5.108;2024-02-23T12:43:15;7.13;;;1.60;;
12591;SDS011;6361;52.120;5.108;2024-02-23T12:45:41;7.38;;;1.60;;
12591;SDS011;6361;52.120;5.108;2024-02-23T12:48:09;2.95;;;1.30;;
12591;SDS011;6361;52.120;5.108;2024-02-23T12:50:34;3.90;;;1.50;;
12591;SDS011;6361;52.120;5.108;2024-02-23T12:52:59;7.20;;;1.70;;
12591;SDS011;6361;52.120;5.108;2024-02-23T12:55:26;6.15;;;2.13;;
12591;SDS011;6361;52.120;5.108;2024-02-23T12:57:51;6.28;;;2.00;;
12591;SDS011;6361;52.120;5.108;2024-02-23T13:00:17;4.78;;;1.75;;
12591;SDS011;6361;52.120;5.108;2024-02-23T13:02:42;4.22;;;1.80;;
12591;SDS011;6361;52.120;5.108;2024-02-23T13:05:08;5.50;;;1.67;;
12591;SDS011;6361;52.120;5.108;2024-02-23T13:07:33;7.75;;;1.80;;
12591;SDS011;6361;52.120;5.108;2024-02-23T13:09:58;5.43;;;1.77;;
12591;SDS011;6361;52.120;5.108;2024-02-23T13:12:23;8.30;;;1.95;;
12591;SDS011;6361;52.120;5.108;2024-02-23T13:14:50;5.35;;;1.75;;
12591;SDS011;6361;52.120;5.108;2024-02-23T13:17:16;6.55;;;1.92;;
12591;SDS011;6361;52.120;5.108;2024-02-23T13:19:42;9.45;;;2.00;;
12591;SDS011;6361;52.120;5.108;2024-02-23T13:22:08;5.25;;;1.63;;
12591;SDS011;6361;52.120;5.108;2024-02-23T13:24:33;5.50;;;1.95;;
12591;SDS011;6361;52.120;5.108;2024-02-23T13:26:59;7.50;;;2.45;;
12591;SDS011;6361;52.120;5.108;2024-02-23T13:29:24;6.60;;;2.35;;
12591;SDS011;6361;52.120;5.108;2024-02-23T13:31:49;7.70;;;1.92;;
12591;SDS011;6361;52.120;5.108;2024-02-23T13:34:15;7.10;;;1.65;;
12591;SDS011;6361;52.120;5.108;2024-02-23T13:36:42;7.18;;;2.00;;
12591;SDS011;6361;52.120;5.108;2024-02-23T13:39:08;5.38;;;1.70;;
12591;SDS011;6361;52.120;5.108;2024-02-23T13:41:34;7.43;;;1.80;;
12591;SDS011;6361;52.120;5.108;2024-02-23T13:43:59;5.00;;;1.45;;
12591;SDS011;6361;52.120;5.108;2024-02-23T13:46:25;5.07;;;1.40;;
12591;SDS011;6361;52.120;5.108;2024-02-23T13:49:01;5.60;;;1.50;;
12591;SDS011;6361;52.120;5.108;2024-02-23T13:51:27;6.72;;;1.33;;
12591;SDS011;6361;52.120;5.108;2024-02-23T13:53:53;3.60;;;1.17;;
12591;SDS011;6361;52.120;5.108;2024-02-23T13:56:18;6.05;;;1.20;;
12591;SDS011;6361;52.120;5.108;2024-02-23T13:58:43;6.05;;;1.40;;
12591;SDS011;6361;52.120;5.108;2024-02-23T14:01:13;2.95;;;1.50;;
12591;SDS011;6361;52.120;5.108;2024-02-23T14:03:38;2.70;;;1.48;;
12591;SDS011;6361;52.120;5.108;2024-02-23T14:06:04;4.65;;;1.63;;
12591;SDS011;6361;52.120;5.108;2024-02-23T14:08:29;4.28;;;1.63;;
12591;SDS011;6361;52.120;5.108;2024-02-23T14:10:54;5.60;;;1.80;;
12591;SDS011;6361;52.120;5.108;2024-02-23T14:13:22;2.55;;;1.42;;
12591;SDS011;6361;52.120;5.108;2024-02-23T14:15:48;6.72;;;2.03;;
12591;SDS011;6361;52.120;5.108;2024-02-23T14:18:13;5.93;;;2.22;;
12591;SDS011;6361;52.120;5.108;2024-02-23T14:20:39;5.22;;;1.75;;
12591;SDS011;6361;52.120;5.108;2024-02-23T14:23:05;4.70;;;1.80;;
12591;SDS011;6361;52.120;5.108;2024-02-23T14:25:30;4.22;;;1.80;;
12591;SDS011;6361;52.120;5.108;2024-02-23T14:27:55;6.72;;;2.00;;
12591;SDS011;6361;52.120;5.108;2024-02-23T14:30:21;3.72;;;1.60;;
12591;SDS011;6361;52.120;5.108;2024-02-23T14:32:47;4.97;;;1.90;;
12591;SDS011;6361;52.120;5.108;2024-02-23T14:35:12;3.70;;;1.50;;
12591;SDS011;6361;52.120;5.108;2024-02-23T14:37:37;2.97;;;1.70;;
12591;SDS011;6361;52.120;5.108;2024-02-23T14:40:03;3.28;;;1.40;;
12591;SDS011;6361;52.120;5.108;2024-02-23T14:42:29;5.63;;;1.58;;
12591;SDS011;6361;52.120;5.108;2024-02-23T14:44:54;1.42;;;1.23;;
12591;SDS011;6361;52.120;5.108;2024-02-23T14:47:19;3.28;;;1.20;;
12591;SDS011;6361;52.120;5.108;2024-02-23T14:49:45;3.33;;;1.10;;
12591;SDS011;6361;52.120;5.108;2024-02-23T14:52:13;2.90;;;1.30;;